Terminal Aerodrome Forecast
Issued by NWS

Home | Current Version | Previous Version | Text Only | Print | Product List | Glossary On
Versions: 1 2 3 4 5 6 7 8 9 10 11 12
909
FTUS44 KBMX 220520
TAFEET
TAF
KEET 220520Z 2206/2306 13006KT P6SM BKN250
     FM221400 15007KT P6SM BKN025
     FM221500 17009G16KT P6SM VCSH OVC015
     FM221800 19010G18KT 6SM -SHRA OVC012
      TEMPO 2219/2222 4SM TSRA BKN008 OVC012CB
     FM222300 19008KT P6SM OVC015=

USA.gov is the U.S. government's official web portal to all federal, state and local government web resources and services.